ZSCTS FACT-FXMM
Flight info
| Callsign | ZSCTS |
|---|---|
| Flight time | 3h 25m |
| Altitude | 8500 |
| Route | TETAN UZ39 TEXIS Z39 EGRUP UZ39 BLV UW61 MZV |
| Aircraft | C208/L-SDFGR/C |
Departure
| Time | 2026-04-20 12:50 |
|---|---|
| Airport | Cape Town International Airport (FACT) |
Arrival
| Time | 2026-04-20 16:15 |
|---|---|
| Airport | Moshoeshoe I International Airport (FXMM) |
| Time | Latitude | Longitude | Altitude | Speed | Heading |
|---|---|---|---|---|---|
| 2026-04-20 12:34 | -33.97902 | 18.59820 | 163 ft | 0 kts | 73° |
| 2026-04-20 12:45 | -33.97891 | 18.59841 | 163 ft | 8 kts | 28° |
| 2026-04-20 12:45 | -33.97842 | 18.59836 | 163 ft | 6 kts | 24° |
| 2026-04-20 12:46 | -33.97824 | 18.59881 | 163 ft | 6 kts | 71° |
| 2026-04-20 12:46 | -33.97812 | 18.59927 | 163 ft | 6 kts | 72° |
| 2026-04-20 12:46 | -33.97784 | 18.60016 | 163 ft | 14 kts | 70° |
| 2026-04-20 12:46 | -33.97747 | 18.60143 | 163 ft | 15 kts | 70° |
| 2026-04-20 12:47 | -33.97802 | 18.60227 | 163 ft | 19 kts | 160° |
| 2026-04-20 12:47 | -33.97957 | 18.60293 | 163 ft | 28 kts | 159° |
| 2026-04-20 12:47 | -33.98158 | 18.60381 | 163 ft | 30 kts | 162° |
| 2026-04-20 12:47 | -33.98285 | 18.60427 | 163 ft | 9 kts | 165° |
| 2026-04-20 12:48 | -33.98342 | 18.60457 | 163 ft | 13 kts | 154° |
| 2026-04-20 12:48 | -33.98443 | 18.60502 | 163 ft | 18 kts | 161° |
| 2026-04-20 12:48 | -33.98574 | 18.60560 | 162 ft | 22 kts | 160° |
| 2026-04-20 12:48 | -33.98725 | 18.60625 | 162 ft | 19 kts | 160° |
| 2026-04-20 12:49 | -33.98800 | 18.60687 | 161 ft | 10 kts | 99° |
| 2026-04-20 12:49 | -33.98779 | 18.60788 | 155 ft | 16 kts | 73° |
| 2026-04-20 12:49 | -33.98680 | 18.60858 | 153 ft | 24 kts | 343° |
| 2026-04-20 12:49 | -33.98368 | 18.60757 | 153 ft | 71 kts | 345° |
| 2026-04-20 12:50 | -33.97828 | 18.60579 | 354 ft | 82 kts | 343° |
| 2026-04-20 12:50 | -33.97242 | 18.60366 | 599 ft | 88 kts | 340° |
| 2026-04-20 12:50 | -33.96642 | 18.60189 | 881 ft | 91 kts | 346° |
| 2026-04-20 12:50 | -33.96035 | 18.60011 | 1168 ft | 89 kts | 358° |
| 2026-04-20 12:51 | -33.95455 | 18.60133 | 1454 ft | 82 kts | 26° |
| 2026-04-20 12:51 | -33.95036 | 18.60557 | 1736 ft | 78 kts | 54° |
| 2026-04-20 12:51 | -33.94844 | 18.61133 | 2009 ft | 75 kts | 62° |
| 2026-04-20 12:51 | -33.94542 | 18.61697 | 2137 ft | 93 kts | 59° |
| 2026-04-20 12:52 | -33.94232 | 18.62501 | 2223 ft | 111 kts | 69° |
| 2026-04-20 12:52 | -33.94052 | 18.63083 | 2372 ft | 114 kts | 70° |
| 2026-04-20 12:52 | -33.93656 | 18.64321 | 2679 ft | 124 kts | 68° |
| 2026-04-20 12:52 | -33.93327 | 18.65301 | 2909 ft | 129 kts | 68° |
| 2026-04-20 12:53 | -33.92983 | 18.66310 | 3130 ft | 132 kts | 68° |
| 2026-04-20 12:53 | -33.92623 | 18.67343 | 3364 ft | 136 kts | 67° |
| 2026-04-20 12:53 | -33.92256 | 18.68395 | 3582 ft | 138 kts | 67° |
| 2026-04-20 12:53 | -33.91881 | 18.69467 | 3806 ft | 139 kts | 67° |
| 2026-04-20 12:54 | -33.91505 | 18.70542 | 4031 ft | 140 kts | 67° |
| 2026-04-20 12:54 | -33.91127 | 18.71627 | 4251 ft | 141 kts | 68° |
| 2026-04-20 12:54 | -33.90745 | 18.72712 | 4471 ft | 141 kts | 67° |
| 2026-04-20 12:54 | -33.90362 | 18.73798 | 4700 ft | 141 kts | 67° |
| 2026-04-20 12:55 | -33.89979 | 18.74889 | 4926 ft | 142 kts | 67° |
| 2026-04-20 12:55 | -33.89595 | 18.75980 | 5148 ft | 142 kts | 67° |
| 2026-04-20 12:55 | -33.89214 | 18.77065 | 5408 ft | 138 kts | 67° |
| 2026-04-20 12:55 | -33.88850 | 18.78095 | 5804 ft | 129 kts | 67° |
| 2026-04-20 12:56 | -33.88509 | 18.79054 | 6175 ft | 122 kts | 67° |
| 2026-04-20 12:56 | -33.88207 | 18.79910 | 7821 ft | 108 kts | 67° |
| 2026-04-20 12:56 | -33.87935 | 18.80685 | 8471 ft | 106 kts | 68° |
| 2026-04-20 12:56 | -33.87633 | 18.81550 | 8503 ft | 120 kts | 67° |
| 2026-04-20 12:57 | -33.87290 | 18.82523 | 8516 ft | 132 kts | 67° |
| 2026-04-20 12:57 | -33.86931 | 18.83552 | 8614 ft | 134 kts | 67° |
| 2026-04-20 12:57 | -33.86569 | 18.84585 | 8685 ft | 135 kts | 67° |
| 2026-04-20 12:57 | -33.86195 | 18.85645 | 8692 ft | 142 kts | 67° |
| 2026-04-20 12:58 | -33.85800 | 18.86770 | 8700 ft | 148 kts | 67° |
| 2026-04-20 12:58 | -33.85396 | 18.87919 | 8696 ft | 151 kts | 67° |
| 2026-04-20 12:58 | -33.84984 | 18.89093 | 8692 ft | 154 kts | 67° |
| 2026-04-20 12:58 | -33.84565 | 18.90282 | 8688 ft | 155 kts | 67° |
| 2026-04-20 12:59 | -33.84141 | 18.91481 | 8691 ft | 158 kts | 67° |
| 2026-04-20 12:59 | -33.83705 | 18.92707 | 8693 ft | 163 kts | 67° |
| 2026-04-20 12:59 | -33.83256 | 18.93981 | 8697 ft | 165 kts | 67° |
| 2026-04-20 12:59 | -33.82809 | 18.95251 | 8692 ft | 165 kts | 67° |
| 2026-04-20 13:00 | -33.82361 | 18.96524 | 8687 ft | 165 kts | 67° |
| 2026-04-20 13:00 | -33.81914 | 18.97785 | 8685 ft | 163 kts | 67° |
| 2026-04-20 13:00 | -33.81472 | 18.99031 | 8687 ft | 162 kts | 67° |
| 2026-04-20 13:00 | -33.81035 | 19.00263 | 8687 ft | 161 kts | 67° |
| 2026-04-20 13:01 | -33.80597 | 19.01500 | 8698 ft | 161 kts | 67° |
| 2026-04-20 13:01 | -33.80158 | 19.02733 | 8693 ft | 160 kts | 67° |
| 2026-04-20 13:01 | -33.79720 | 19.03965 | 8694 ft | 160 kts | 67° |
| 2026-04-20 13:01 | -33.79286 | 19.05191 | 8698 ft | 161 kts | 67° |
| 2026-04-20 13:02 | -33.78849 | 19.06426 | 8687 ft | 160 kts | 67° |
| 2026-04-20 13:02 | -33.78417 | 19.07648 | 8694 ft | 159 kts | 67° |
| 2026-04-20 13:02 | -33.77985 | 19.08865 | 8699 ft | 159 kts | 67° |
| 2026-04-20 13:02 | -33.77554 | 19.10076 | 8687 ft | 158 kts | 67° |
| 2026-04-20 13:03 | -33.77125 | 19.11285 | 8695 ft | 158 kts | 67° |
| 2026-04-20 13:03 | -33.76694 | 19.12494 | 8698 ft | 157 kts | 67° |
| 2026-04-20 13:03 | -33.76264 | 19.13701 | 8695 ft | 157 kts | 67° |
| 2026-04-20 13:03 | -33.75836 | 19.14904 | 8684 ft | 156 kts | 67° |
| 2026-04-20 13:04 | -33.75407 | 19.16098 | 8684 ft | 155 kts | 67° |
| 2026-04-20 13:04 | -33.74975 | 19.17285 | 8709 ft | 157 kts | 66° |
| 2026-04-20 13:04 | -33.74539 | 19.18492 | 8703 ft | 158 kts | 67° |
| 2026-04-20 13:04 | -33.74104 | 19.19706 | 8690 ft | 158 kts | 67° |
| 2026-04-20 13:05 | -33.73669 | 19.20911 | 8694 ft | 158 kts | 67° |
| 2026-04-20 13:05 | -33.73235 | 19.22120 | 8694 ft | 158 kts | 67° |
| 2026-04-20 13:05 | -33.72896 | 19.23050 | 9998 ft | 107 kts | 66° |
| 2026-04-20 13:05 | -33.72622 | 19.23829 | 9971 ft | 96 kts | 68° |
| 2026-04-20 13:06 | -33.72337 | 19.24616 | 10008 ft | 113 kts | 66° |
| 2026-04-20 13:06 | -33.71990 | 19.25550 | 10019 ft | 132 kts | 66° |
| 2026-04-20 13:06 | -33.71610 | 19.26618 | 10015 ft | 146 kts | 67° |
| 2026-04-20 13:06 | -33.71204 | 19.27778 | 9997 ft | 155 kts | 68° |
| 2026-04-20 13:07 | -33.70784 | 19.28982 | 9985 ft | 160 kts | 67° |
| 2026-04-20 13:07 | -33.70341 | 19.30237 | 9981 ft | 163 kts | 67° |
| 2026-04-20 13:07 | -33.69893 | 19.31496 | 9979 ft | 165 kts | 67° |
| 2026-04-20 13:07 | -33.69456 | 19.32721 | 10124 ft | 158 kts | 66° |
| 2026-04-20 13:08 | -33.69000 | 19.33988 | 9914 ft | 173 kts | 67° |
| 2026-04-20 13:08 | -33.68512 | 19.35352 | 9664 ft | 183 kts | 67° |
| 2026-04-20 13:08 | -33.68005 | 19.36768 | 9420 ft | 188 kts | 67° |
| 2026-04-20 13:08 | -33.67483 | 19.38218 | 9171 ft | 190 kts | 67° |
| 2026-04-20 13:09 | -33.66956 | 19.39677 | 8916 ft | 191 kts | 67° |
| 2026-04-20 13:09 | -33.66434 | 19.41122 | 8666 ft | 191 kts | 67° |
| 2026-04-20 13:09 | -33.65905 | 19.42583 | 8571 ft | 183 kts | 66° |
| 2026-04-20 13:09 | -33.65379 | 19.43932 | 8591 ft | 175 kts | 64° |
| 2026-04-20 13:10 | -33.64842 | 19.45210 | 8597 ft | 171 kts | 63° |
| 2026-04-20 13:10 | -33.64337 | 19.46408 | 8598 ft | 167 kts | 64° |
| 2026-04-20 13:10 | -33.63815 | 19.47661 | 8597 ft | 165 kts | 64° |
| 2026-04-20 13:10 | -33.63307 | 19.48890 | 8600 ft | 165 kts | 64° |
| 2026-04-20 13:11 | -33.62804 | 19.50121 | 8600 ft | 165 kts | 64° |
| 2026-04-20 13:11 | -33.62304 | 19.51350 | 8599 ft | 164 kts | 64° |
| 2026-04-20 13:11 | -33.61803 | 19.52579 | 8599 ft | 164 kts | 64° |
| 2026-04-20 13:11 | -33.61304 | 19.53800 | 8599 ft | 164 kts | 64° |
| 2026-04-20 13:12 | -33.60806 | 19.55027 | 8602 ft | 164 kts | 64° |
| 2026-04-20 13:12 | -33.60307 | 19.56251 | 8603 ft | 164 kts | 64° |
| 2026-04-20 13:12 | -33.59806 | 19.57476 | 8601 ft | 164 kts | 64° |
| 2026-04-20 13:12 | -33.59306 | 19.58699 | 8598 ft | 164 kts | 64° |
| 2026-04-20 13:13 | -33.58807 | 19.59923 | 8606 ft | 164 kts | 64° |
| 2026-04-20 13:13 | -33.58320 | 19.61128 | 8602 ft | 162 kts | 64° |
| 2026-04-20 13:13 | -33.57821 | 19.62350 | 8595 ft | 160 kts | 64° |
| 2026-04-20 13:13 | -33.57330 | 19.63548 | 8602 ft | 161 kts | 64° |
| 2026-04-20 13:14 | -33.56836 | 19.64756 | 8606 ft | 163 kts | 64° |
| 2026-04-20 13:14 | -33.56337 | 19.65976 | 8604 ft | 164 kts | 64° |
| 2026-04-20 13:14 | -33.55835 | 19.67201 | 8603 ft | 164 kts | 64° |
| 2026-04-20 13:14 | -33.55332 | 19.68429 | 8597 ft | 164 kts | 64° |
| 2026-04-20 13:15 | -33.54832 | 19.69652 | 8597 ft | 164 kts | 64° |
| 2026-04-20 13:15 | -33.54332 | 19.70878 | 8598 ft | 164 kts | 64° |
| 2026-04-20 13:15 | -33.53835 | 19.72090 | 8593 ft | 162 kts | 64° |
| 2026-04-20 13:15 | -33.53343 | 19.73297 | 8594 ft | 163 kts | 64° |
| 2026-04-20 13:16 | -33.52837 | 19.74526 | 8570 ft | 167 kts | 64° |
| 2026-04-20 13:16 | -33.52315 | 19.75799 | 8546 ft | 173 kts | 64° |
| 2026-04-20 13:16 | -33.51787 | 19.77091 | 8526 ft | 173 kts | 64° |
| 2026-04-20 13:16 | -33.51257 | 19.78385 | 8506 ft | 173 kts | 64° |
| 2026-04-20 13:17 | -33.50728 | 19.79669 | 8496 ft | 171 kts | 64° |
| 2026-04-20 13:17 | -33.50207 | 19.80939 | 8495 ft | 169 kts | 64° |
| 2026-04-20 13:17 | -33.49693 | 19.82197 | 8496 ft | 168 kts | 64° |
| 2026-04-20 13:17 | -33.49349 | 19.83033 | 8494 ft | 167 kts | 64° |
| 2026-04-20 13:18 | -33.48666 | 19.84684 | 8504 ft | 166 kts | 64° |
| 2026-04-20 13:18 | -33.48156 | 19.85924 | 8500 ft | 166 kts | 64° |
| 2026-04-20 13:18 | -33.47817 | 19.86748 | 8498 ft | 166 kts | 64° |
| 2026-04-20 13:18 | -33.47138 | 19.88403 | 8501 ft | 166 kts | 64° |
| 2026-04-20 13:19 | -33.46629 | 19.89645 | 8503 ft | 167 kts | 64° |
| 2026-04-20 13:19 | -33.46119 | 19.90885 | 8505 ft | 167 kts | 64° |
| 2026-04-20 13:19 | -33.45607 | 19.92131 | 8503 ft | 167 kts | 64° |
| 2026-04-20 13:19 | -33.45092 | 19.93374 | 8497 ft | 167 kts | 64° |
| 2026-04-20 13:20 | -33.44578 | 19.94615 | 8500 ft | 167 kts | 64° |
| 2026-04-20 13:20 | -33.44065 | 19.95856 | 8499 ft | 167 kts | 64° |
| 2026-04-20 13:20 | -33.43553 | 19.97095 | 8500 ft | 166 kts | 64° |
| 2026-04-20 13:20 | -33.43043 | 19.98333 | 8499 ft | 166 kts | 64° |
| 2026-04-20 13:21 | -33.42533 | 19.99570 | 8499 ft | 166 kts | 64° |
| 2026-04-20 13:21 | -33.42025 | 20.00803 | 8499 ft | 165 kts | 64° |
| 2026-04-20 13:21 | -33.41516 | 20.02034 | 8500 ft | 165 kts | 64° |
| 2026-04-20 13:21 | -33.41007 | 20.03264 | 8500 ft | 165 kts | 64° |
| 2026-04-20 13:22 | -33.40668 | 20.04084 | 8500 ft | 165 kts | 64° |
| 2026-04-20 13:22 | -33.39992 | 20.05720 | 8500 ft | 165 kts | 64° |
| 2026-04-20 13:22 | -33.39486 | 20.06945 | 8501 ft | 165 kts | 64° |
| 2026-04-20 13:22 | -33.38980 | 20.08170 | 8500 ft | 165 kts | 64° |
| 2026-04-20 13:23 | -33.38473 | 20.09396 | 8499 ft | 164 kts | 64° |
| 2026-04-20 13:23 | -33.37966 | 20.10616 | 8500 ft | 164 kts | 64° |
| 2026-04-20 13:23 | -33.37460 | 20.11841 | 8502 ft | 164 kts | 64° |
| 2026-04-20 13:23 | -33.36954 | 20.13064 | 8503 ft | 165 kts | 64° |
| 2026-04-20 13:24 | -33.36445 | 20.14288 | 8500 ft | 165 kts | 64° |
| 2026-04-20 13:24 | -33.35937 | 20.15511 | 8499 ft | 164 kts | 64° |
| 2026-04-20 13:24 | -33.35431 | 20.16733 | 8500 ft | 164 kts | 64° |
| 2026-04-20 13:24 | -33.34924 | 20.17953 | 8499 ft | 164 kts | 64° |
| 2026-04-20 13:25 | -33.34419 | 20.19173 | 8503 ft | 164 kts | 64° |
| 2026-04-20 13:25 | -33.33914 | 20.20390 | 8497 ft | 164 kts | 64° |
| 2026-04-20 13:25 | -33.33409 | 20.21608 | 8497 ft | 163 kts | 64° |
| 2026-04-20 13:25 | -33.32907 | 20.22820 | 8502 ft | 163 kts | 64° |
| 2026-04-20 13:26 | -33.32400 | 20.24035 | 8499 ft | 163 kts | 64° |
| 2026-04-20 13:26 | -33.31895 | 20.25244 | 8495 ft | 163 kts | 64° |
| 2026-04-20 13:26 | -33.31391 | 20.26453 | 8501 ft | 163 kts | 64° |
| 2026-04-20 13:26 | -33.30888 | 20.27662 | 8497 ft | 163 kts | 64° |
| 2026-04-20 13:27 | -33.30388 | 20.28869 | 8503 ft | 163 kts | 64° |
| 2026-04-20 13:27 | -33.29890 | 20.30072 | 8501 ft | 161 kts | 64° |
| 2026-04-20 13:27 | -33.29394 | 20.31264 | 8503 ft | 161 kts | 64° |
| 2026-04-20 13:27 | -33.28893 | 20.32465 | 8503 ft | 162 kts | 64° |
| 2026-04-20 13:28 | -33.28403 | 20.33676 | 8503 ft | 162 kts | 65° |
| 2026-04-20 13:28 | -33.27928 | 20.34893 | 8499 ft | 162 kts | 65° |
| 2026-04-20 13:28 | -33.27448 | 20.36099 | 8497 ft | 161 kts | 65° |
| 2026-04-20 13:28 | -33.26960 | 20.37299 | 8501 ft | 161 kts | 65° |
| 2026-04-20 13:29 | -33.26410 | 20.38461 | 8500 ft | 162 kts | 56° |
| 2026-04-20 13:29 | -33.25688 | 20.39491 | 8500 ft | 162 kts | 50° |
| 2026-04-20 13:29 | -33.24959 | 20.40514 | 8499 ft | 162 kts | 51° |
| 2026-04-20 13:29 | -33.24243 | 20.41540 | 8502 ft | 162 kts | 51° |
| 2026-04-20 13:30 | -33.23521 | 20.42580 | 8502 ft | 163 kts | 51° |
| 2026-04-20 13:30 | -33.22799 | 20.43618 | 8496 ft | 162 kts | 51° |
| 2026-04-20 13:30 | -33.22081 | 20.44648 | 8501 ft | 162 kts | 51° |
| 2026-04-20 13:30 | -33.21360 | 20.45677 | 8501 ft | 162 kts | 51° |
| 2026-04-20 13:31 | -33.20636 | 20.46710 | 8502 ft | 162 kts | 51° |
| 2026-04-20 13:31 | -33.19914 | 20.47741 | 8502 ft | 162 kts | 51° |
| 2026-04-20 13:31 | -33.19188 | 20.48773 | 8498 ft | 163 kts | 51° |
| 2026-04-20 13:31 | -33.18464 | 20.49805 | 8500 ft | 162 kts | 51° |
| 2026-04-20 13:32 | -33.17740 | 20.50835 | 8502 ft | 163 kts | 51° |
| 2026-04-20 13:32 | -33.17014 | 20.51869 | 8498 ft | 162 kts | 51° |
| 2026-04-20 13:32 | -33.16290 | 20.52901 | 8500 ft | 162 kts | 51° |
| 2026-04-20 13:32 | -33.15568 | 20.53927 | 8501 ft | 162 kts | 51° |
| 2026-04-20 13:33 | -33.14843 | 20.54956 | 8501 ft | 162 kts | 51° |
| 2026-04-20 13:33 | -33.14119 | 20.55984 | 8501 ft | 162 kts | 51° |
| 2026-04-20 13:33 | -33.13393 | 20.57015 | 8501 ft | 163 kts | 51° |
| 2026-04-20 13:33 | -33.12666 | 20.58047 | 8501 ft | 163 kts | 51° |
| 2026-04-20 13:34 | -33.11941 | 20.59078 | 8498 ft | 162 kts | 51° |
| 2026-04-20 13:34 | -33.11216 | 20.60105 | 8496 ft | 162 kts | 51° |
| 2026-04-20 13:34 | -33.10494 | 20.61130 | 8499 ft | 162 kts | 51° |
| 2026-04-20 13:34 | -33.10011 | 20.61815 | 8499 ft | 162 kts | 51° |
| 2026-04-20 13:35 | -33.09047 | 20.63182 | 8497 ft | 162 kts | 51° |
| 2026-04-20 13:35 | -33.08325 | 20.64205 | 8502 ft | 162 kts | 51° |
| 2026-04-20 13:35 | -33.07601 | 20.65230 | 8502 ft | 162 kts | 51° |
| 2026-04-20 13:35 | -33.06877 | 20.66256 | 8502 ft | 162 kts | 51° |
| 2026-04-20 13:36 | -33.06150 | 20.67286 | 8502 ft | 163 kts | 51° |
| 2026-04-20 13:36 | -33.05423 | 20.68317 | 8499 ft | 162 kts | 51° |
| 2026-04-20 13:36 | -33.04700 | 20.69342 | 8500 ft | 162 kts | 51° |
| 2026-04-20 13:36 | -33.03974 | 20.70370 | 8500 ft | 162 kts | 51° |
| 2026-04-20 13:37 | -33.03251 | 20.71393 | 8500 ft | 162 kts | 51° |
| 2026-04-20 13:37 | -33.02526 | 20.72418 | 8500 ft | 162 kts | 51° |
| 2026-04-20 13:37 | -33.01803 | 20.73439 | 8501 ft | 162 kts | 51° |
| 2026-04-20 13:37 | -33.01076 | 20.74468 | 8499 ft | 162 kts | 51° |
| 2026-04-20 13:38 | -33.00350 | 20.75492 | 8501 ft | 162 kts | 51° |
| 2026-04-20 13:38 | -32.99623 | 20.76520 | 8501 ft | 163 kts | 51° |
| 2026-04-20 13:38 | -32.98896 | 20.77547 | 8499 ft | 163 kts | 51° |
| 2026-04-20 13:38 | -32.98169 | 20.78574 | 8502 ft | 163 kts | 51° |
| 2026-04-20 13:39 | -32.97686 | 20.79257 | 8502 ft | 163 kts | 51° |
| 2026-04-20 13:39 | -32.96716 | 20.80626 | 8501 ft | 162 kts | 51° |
| 2026-04-20 13:39 | -32.95990 | 20.81651 | 8499 ft | 162 kts | 51° |
| 2026-04-20 13:39 | -32.95261 | 20.82677 | 8500 ft | 162 kts | 51° |
| 2026-04-20 13:40 | -32.94535 | 20.83701 | 8499 ft | 162 kts | 51° |
| 2026-04-20 13:40 | -32.93809 | 20.84724 | 8499 ft | 162 kts | 51° |
| 2026-04-20 13:40 | -32.93086 | 20.85745 | 8498 ft | 162 kts | 51° |
| 2026-04-20 13:40 | -32.92360 | 20.86768 | 8502 ft | 162 kts | 51° |
| 2026-04-20 13:41 | -32.91637 | 20.87786 | 8501 ft | 162 kts | 51° |
| 2026-04-20 13:41 | -32.90910 | 20.88809 | 8500 ft | 162 kts | 51° |
| 2026-04-20 13:41 | -32.90186 | 20.89827 | 8500 ft | 162 kts | 51° |
| 2026-04-20 13:41 | -32.89460 | 20.90848 | 8500 ft | 162 kts | 51° |
| 2026-04-20 13:42 | -32.88735 | 20.91869 | 8500 ft | 162 kts | 51° |
| 2026-04-20 13:42 | -32.87288 | 20.93904 | 8499 ft | 161 kts | 51° |
| 2026-04-20 13:42 | -32.86564 | 20.94922 | 8500 ft | 162 kts | 51° |
| 2026-04-20 13:43 | -32.85840 | 20.95940 | 8501 ft | 162 kts | 51° |
| 2026-04-20 13:43 | -32.85356 | 20.96621 | 8499 ft | 162 kts | 51° |
| 2026-04-20 13:43 | -32.84389 | 20.97980 | 8500 ft | 162 kts | 51° |
| 2026-04-20 13:43 | -32.83667 | 20.98995 | 8499 ft | 162 kts | 51° |
| 2026-04-20 13:44 | -32.82940 | 21.00013 | 8500 ft | 161 kts | 51° |
| 2026-04-20 13:44 | -32.82215 | 21.01030 | 8500 ft | 161 kts | 51° |
| 2026-04-20 13:44 | -32.81491 | 21.02046 | 8501 ft | 162 kts | 51° |
| 2026-04-20 13:44 | -32.80765 | 21.03064 | 8501 ft | 162 kts | 50° |
| 2026-04-20 13:45 | -32.80040 | 21.04081 | 8497 ft | 161 kts | 51° |
| 2026-04-20 13:45 | -32.79317 | 21.05094 | 8502 ft | 161 kts | 51° |
| 2026-04-20 13:45 | -32.78592 | 21.06111 | 8502 ft | 162 kts | 51° |
| 2026-04-20 13:45 | -32.77866 | 21.07130 | 8498 ft | 162 kts | 51° |
| 2026-04-20 13:46 | -32.77141 | 21.08146 | 8498 ft | 161 kts | 51° |
| 2026-04-20 13:46 | -32.76416 | 21.09161 | 8502 ft | 162 kts | 50° |
| 2026-04-20 13:46 | -32.75689 | 21.10178 | 8501 ft | 162 kts | 51° |
| 2026-04-20 13:46 | -32.74960 | 21.11199 | 8498 ft | 162 kts | 50° |
| 2026-04-20 13:47 | -32.74233 | 21.12215 | 8503 ft | 162 kts | 51° |
| 2026-04-20 13:47 | -32.73505 | 21.13233 | 8497 ft | 162 kts | 51° |
| 2026-04-20 13:47 | -32.72778 | 21.14250 | 8502 ft | 162 kts | 51° |
| 2026-04-20 13:47 | -32.72054 | 21.15265 | 8502 ft | 162 kts | 50° |
| 2026-04-20 13:48 | -32.71328 | 21.16279 | 8501 ft | 161 kts | 50° |
| 2026-04-20 13:48 | -32.70603 | 21.17291 | 8502 ft | 162 kts | 50° |
| 2026-04-20 13:48 | -32.69866 | 21.18322 | 8500 ft | 165 kts | 51° |
| 2026-04-20 13:48 | -32.69120 | 21.19370 | 8502 ft | 167 kts | 51° |
| 2026-04-20 13:49 | -32.68367 | 21.20427 | 8500 ft | 168 kts | 51° |
| 2026-04-20 13:49 | -32.67610 | 21.21487 | 8500 ft | 169 kts | 51° |
| 2026-04-20 13:49 | -32.66851 | 21.22548 | 8497 ft | 169 kts | 50° |
| 2026-04-20 13:49 | -32.66091 | 21.23609 | 8496 ft | 169 kts | 50° |
| 2026-04-20 13:50 | -32.65334 | 21.24664 | 8498 ft | 168 kts | 50° |
| 2026-04-20 13:50 | -32.64577 | 21.25719 | 8498 ft | 168 kts | 50° |
| 2026-04-20 13:50 | -32.63822 | 21.26771 | 8499 ft | 168 kts | 50° |
| 2026-04-20 13:50 | -32.63067 | 21.27820 | 8499 ft | 167 kts | 50° |
| 2026-04-20 13:51 | -32.62314 | 21.28869 | 8499 ft | 167 kts | 50° |
| 2026-04-20 13:51 | -32.61564 | 21.29913 | 8499 ft | 167 kts | 50° |
| 2026-04-20 13:51 | -32.60814 | 21.30956 | 8501 ft | 166 kts | 50° |
| 2026-04-20 13:51 | -32.60064 | 21.31998 | 8499 ft | 166 kts | 50° |
| 2026-04-20 13:52 | -32.59316 | 21.33039 | 8501 ft | 166 kts | 50° |
| 2026-04-20 13:52 | -32.58568 | 21.34078 | 8499 ft | 166 kts | 50° |
| 2026-04-20 13:52 | -32.58069 | 21.34771 | 8499 ft | 166 kts | 50° |
| 2026-04-20 13:52 | -32.57075 | 21.36152 | 8501 ft | 165 kts | 50° |
| 2026-04-20 13:53 | -32.56331 | 21.37186 | 8501 ft | 165 kts | 50° |
| 2026-04-20 13:53 | -32.55586 | 21.38221 | 8500 ft | 165 kts | 50° |
| 2026-04-20 13:53 | -32.54843 | 21.39254 | 8501 ft | 165 kts | 50° |
| 2026-04-20 13:53 | -32.54100 | 21.40285 | 8500 ft | 165 kts | 50° |
| 2026-04-20 13:54 | -32.53356 | 21.41317 | 8500 ft | 165 kts | 50° |
| 2026-04-20 13:54 | -32.52613 | 21.42347 | 8500 ft | 164 kts | 50° |
| 2026-04-20 13:54 | -32.51872 | 21.43375 | 8501 ft | 164 kts | 50° |
| 2026-04-20 13:54 | -32.51132 | 21.44401 | 8501 ft | 164 kts | 50° |
| 2026-04-20 13:55 | -32.50391 | 21.45428 | 8499 ft | 164 kts | 50° |
| 2026-04-20 13:55 | -32.49650 | 21.46455 | 8499 ft | 164 kts | 50° |
| 2026-04-20 13:55 | -32.48911 | 21.47479 | 8499 ft | 164 kts | 50° |
| 2026-04-20 13:55 | -32.48173 | 21.48501 | 8501 ft | 164 kts | 50° |
| 2026-04-20 13:56 | -32.47680 | 21.49183 | 8500 ft | 164 kts | 50° |
| 2026-04-20 13:56 | -32.46697 | 21.50545 | 8501 ft | 164 kts | 50° |
| 2026-04-20 13:56 | -32.45960 | 21.51565 | 8500 ft | 163 kts | 50° |
| 2026-04-20 13:56 | -32.45222 | 21.52586 | 8500 ft | 163 kts | 50° |
| 2026-04-20 13:57 | -32.44486 | 21.53603 | 8500 ft | 163 kts | 50° |
| 2026-04-20 13:57 | -32.43994 | 21.54284 | 8500 ft | 163 kts | 50° |
| 2026-04-20 13:57 | -32.43012 | 21.55643 | 8500 ft | 163 kts | 50° |
| 2026-04-20 13:57 | -32.42274 | 21.56662 | 8500 ft | 163 kts | 50° |
| 2026-04-20 13:58 | -32.41540 | 21.57678 | 8500 ft | 163 kts | 50° |
| 2026-04-20 13:58 | -32.40802 | 21.58697 | 8501 ft | 163 kts | 50° |
| 2026-04-20 13:58 | -32.40066 | 21.59712 | 8501 ft | 163 kts | 50° |
| 2026-04-20 13:58 | -32.39329 | 21.60730 | 8501 ft | 163 kts | 50° |
| 2026-04-20 13:59 | -32.38595 | 21.61744 | 8499 ft | 163 kts | 50° |
| 2026-04-20 13:59 | -32.37857 | 21.62761 | 8503 ft | 163 kts | 50° |
| 2026-04-20 13:59 | -32.37120 | 21.63777 | 8501 ft | 163 kts | 50° |
| 2026-04-20 13:59 | -32.36383 | 21.64795 | 8500 ft | 163 kts | 50° |
| 2026-04-20 14:00 | -32.35646 | 21.65812 | 8500 ft | 163 kts | 50° |
| 2026-04-20 14:00 | -32.35154 | 21.66489 | 8499 ft | 163 kts | 50° |
| 2026-04-20 14:00 | -32.34176 | 21.67838 | 8499 ft | 163 kts | 50° |
| 2026-04-20 14:00 | -32.33438 | 21.68856 | 8498 ft | 162 kts | 50° |
| 2026-04-20 14:01 | -32.32704 | 21.69867 | 8500 ft | 162 kts | 50° |
| 2026-04-20 14:01 | -32.31969 | 21.70876 | 8500 ft | 162 kts | 50° |
| 2026-04-20 14:01 | -32.31235 | 21.71886 | 8499 ft | 162 kts | 50° |
| 2026-04-20 14:01 | -32.30501 | 21.72897 | 8499 ft | 162 kts | 50° |
| 2026-04-20 14:02 | -32.29768 | 21.73905 | 8500 ft | 162 kts | 50° |
| 2026-04-20 14:02 | -32.29034 | 21.74914 | 8499 ft | 162 kts | 50° |
| 2026-04-20 14:02 | -32.28305 | 21.75918 | 8500 ft | 162 kts | 50° |
| 2026-04-20 14:02 | -32.27570 | 21.76928 | 8499 ft | 162 kts | 50° |
| 2026-04-20 14:03 | -32.26836 | 21.77936 | 8502 ft | 162 kts | 50° |
| 2026-04-20 14:03 | -32.26104 | 21.78944 | 8503 ft | 162 kts | 50° |
| 2026-04-20 14:03 | -32.25371 | 21.79951 | 8502 ft | 162 kts | 50° |
| 2026-04-20 14:03 | -32.24636 | 21.80961 | 8504 ft | 163 kts | 50° |
| 2026-04-20 14:04 | -32.23899 | 21.81974 | 8501 ft | 163 kts | 50° |
| 2026-04-20 14:04 | -32.23164 | 21.82993 | 8500 ft | 163 kts | 50° |
| 2026-04-20 14:04 | -32.22674 | 21.83666 | 8501 ft | 163 kts | 50° |
| 2026-04-20 14:04 | -32.21935 | 21.84679 | 8499 ft | 163 kts | 50° |
| 2026-04-20 14:05 | -32.20951 | 21.86025 | 8498 ft | 162 kts | 50° |
| 2026-04-20 14:05 | -32.20461 | 21.86694 | 8498 ft | 162 kts | 50° |
| 2026-04-20 14:05 | -32.19482 | 21.88034 | 8496 ft | 161 kts | 50° |
| 2026-04-20 14:05 | -32.18750 | 21.89036 | 8500 ft | 162 kts | 50° |
| 2026-04-20 14:06 | -32.18016 | 21.90040 | 8501 ft | 162 kts | 50° |
| 2026-04-20 14:06 | -32.17282 | 21.91044 | 8499 ft | 162 kts | 50° |
| 2026-04-20 14:06 | -32.16550 | 21.92046 | 8501 ft | 162 kts | 50° |
| 2026-04-20 14:06 | -32.15814 | 21.93053 | 8499 ft | 162 kts | 50° |
| 2026-04-20 14:07 | -32.15080 | 21.94057 | 8501 ft | 162 kts | 50° |
| 2026-04-20 14:07 | -32.14347 | 21.95062 | 8502 ft | 162 kts | 50° |
| 2026-04-20 14:07 | -32.13612 | 21.96068 | 8496 ft | 162 kts | 50° |
| 2026-04-20 14:07 | -32.12880 | 21.97069 | 8500 ft | 162 kts | 50° |
| 2026-04-20 14:08 | -32.12142 | 21.98078 | 8499 ft | 162 kts | 50° |
| 2026-04-20 14:08 | -32.11407 | 21.99081 | 8501 ft | 162 kts | 50° |
| 2026-04-20 14:08 | -32.10670 | 22.00088 | 8498 ft | 162 kts | 50° |
| 2026-04-20 14:08 | -32.10179 | 22.00758 | 8499 ft | 162 kts | 50° |
| 2026-04-20 14:09 | -32.09200 | 22.02096 | 8498 ft | 162 kts | 50° |
| 2026-04-20 14:09 | -32.08465 | 22.03098 | 8501 ft | 162 kts | 50° |
| 2026-04-20 14:09 | -32.07732 | 22.04100 | 8500 ft | 162 kts | 50° |
| 2026-04-20 14:09 | -32.06998 | 22.05102 | 8496 ft | 161 kts | 50° |
| 2026-04-20 14:10 | -32.06266 | 22.06099 | 8499 ft | 161 kts | 50° |
| 2026-04-20 14:10 | -32.05777 | 22.06766 | 8499 ft | 161 kts | 50° |
| 2026-04-20 14:10 | -32.04804 | 22.08092 | 8501 ft | 161 kts | 50° |
| 2026-04-20 14:10 | -32.04069 | 22.09094 | 8501 ft | 161 kts | 50° |
| 2026-04-20 14:11 | -32.03338 | 22.10091 | 8501 ft | 161 kts | 50° |
| 2026-04-20 14:11 | -32.02849 | 22.10758 | 8501 ft | 162 kts | 50° |
| 2026-04-20 14:11 | -32.01869 | 22.12094 | 8500 ft | 162 kts | 50° |
| 2026-04-20 14:11 | -32.01134 | 22.13095 | 8500 ft | 162 kts | 50° |
| 2026-04-20 14:12 | -32.00399 | 22.14094 | 8500 ft | 162 kts | 50° |
| 2026-04-20 14:12 | -31.99665 | 22.15091 | 8501 ft | 162 kts | 50° |
| 2026-04-20 14:12 | -31.98930 | 22.16092 | 8499 ft | 162 kts | 50° |
| 2026-04-20 14:12 | -31.98195 | 22.17093 | 8499 ft | 162 kts | 50° |
| 2026-04-20 14:13 | -31.97705 | 22.17760 | 8500 ft | 162 kts | 50° |
| 2026-04-20 14:13 | -31.96725 | 22.19090 | 8499 ft | 162 kts | 50° |
| 2026-04-20 14:13 | -31.95991 | 22.20087 | 8498 ft | 161 kts | 50° |
| 2026-04-20 14:13 | -31.95258 | 22.21082 | 8502 ft | 161 kts | 50° |
| 2026-04-20 14:14 | -31.94767 | 22.21748 | 8500 ft | 162 kts | 50° |
| 2026-04-20 14:14 | -31.93788 | 22.23078 | 8502 ft | 162 kts | 50° |
| 2026-04-20 14:14 | -31.93054 | 22.24075 | 8498 ft | 161 kts | 50° |
| 2026-04-20 14:14 | -31.92321 | 22.25072 | 8501 ft | 161 kts | 50° |
| 2026-04-20 14:15 | -31.91588 | 22.26066 | 8501 ft | 162 kts | 50° |
| 2026-04-20 14:15 | -31.90853 | 22.27063 | 8496 ft | 161 kts | 50° |
| 2026-04-20 14:15 | -31.90120 | 22.28057 | 8502 ft | 161 kts | 50° |
| 2026-04-20 14:15 | -31.89385 | 22.29055 | 8501 ft | 162 kts | 50° |
| 2026-04-20 14:16 | -31.88649 | 22.30053 | 8501 ft | 162 kts | 50° |
| 2026-04-20 14:16 | -31.87913 | 22.31050 | 8501 ft | 162 kts | 50° |
| 2026-04-20 14:16 | -31.87177 | 22.32046 | 8499 ft | 162 kts | 50° |
| 2026-04-20 14:16 | -31.86686 | 22.32710 | 8500 ft | 162 kts | 50° |
| 2026-04-20 14:17 | -31.85705 | 22.34040 | 8500 ft | 162 kts | 50° |
| 2026-04-20 14:17 | -31.84970 | 22.35035 | 8498 ft | 161 kts | 50° |
| 2026-04-20 14:17 | -31.84237 | 22.36029 | 8497 ft | 161 kts | 50° |
| 2026-04-20 14:17 | -31.83500 | 22.37023 | 8498 ft | 162 kts | 50° |
| 2026-04-20 14:18 | -31.82764 | 22.38018 | 8502 ft | 162 kts | 50° |
| 2026-04-20 14:18 | -31.82028 | 22.39013 | 8501 ft | 162 kts | 50° |
| 2026-04-20 14:18 | -31.81292 | 22.40009 | 8500 ft | 162 kts | 50° |
| 2026-04-20 14:18 | -31.80556 | 22.41004 | 8499 ft | 161 kts | 50° |
| 2026-04-20 14:19 | -31.79819 | 22.41998 | 8500 ft | 161 kts | 50° |
| 2026-04-20 14:19 | -31.79084 | 22.42991 | 8500 ft | 161 kts | 50° |
| 2026-04-20 14:19 | -31.78350 | 22.43983 | 8501 ft | 161 kts | 50° |
| 2026-04-20 14:19 | -31.77613 | 22.44976 | 8500 ft | 162 kts | 50° |
| 2026-04-20 14:20 | -31.77123 | 22.45639 | 8500 ft | 162 kts | 50° |
| 2026-04-20 14:20 | -31.76387 | 22.46633 | 8499 ft | 162 kts | 50° |
| 2026-04-20 14:20 | -31.75651 | 22.47626 | 8498 ft | 161 kts | 50° |
| 2026-04-20 14:20 | -31.74673 | 22.48945 | 8501 ft | 161 kts | 50° |
| 2026-04-20 14:21 | -31.73939 | 22.49932 | 8501 ft | 161 kts | 50° |
| 2026-04-20 14:21 | -31.73205 | 22.50922 | 8501 ft | 161 kts | 50° |
| 2026-04-20 14:21 | -31.72714 | 22.51584 | 8500 ft | 161 kts | 50° |
| 2026-04-20 14:21 | -31.71735 | 22.52903 | 8499 ft | 161 kts | 50° |
| 2026-04-20 14:22 | -31.71003 | 22.53891 | 8503 ft | 161 kts | 50° |
| 2026-04-20 14:22 | -31.70269 | 22.54880 | 8501 ft | 161 kts | 50° |
| 2026-04-20 14:22 | -31.69531 | 22.55872 | 8501 ft | 161 kts | 50° |
| 2026-04-20 14:22 | -31.68794 | 22.56864 | 8501 ft | 162 kts | 50° |
| 2026-04-20 14:23 | -31.68057 | 22.57855 | 8501 ft | 162 kts | 50° |
| 2026-04-20 14:23 | -31.67319 | 22.58849 | 8501 ft | 161 kts | 50° |
| 2026-04-20 14:23 | -31.66584 | 22.59839 | 8499 ft | 161 kts | 50° |
| 2026-04-20 14:23 | -31.65849 | 22.60824 | 8500 ft | 160 kts | 50° |
| 2026-04-20 14:24 | -31.65122 | 22.61801 | 8496 ft | 160 kts | 50° |
| 2026-04-20 14:24 | -31.64380 | 22.62798 | 8501 ft | 163 kts | 50° |
| 2026-04-20 14:24 | -31.63630 | 22.63810 | 8501 ft | 166 kts | 50° |
| 2026-04-20 14:24 | -31.62873 | 22.64835 | 8499 ft | 167 kts | 50° |
| 2026-04-20 14:25 | -31.62110 | 22.65865 | 8499 ft | 168 kts | 50° |
| 2026-04-20 14:25 | -31.61599 | 22.66553 | 8499 ft | 168 kts | 50° |
| 2026-04-20 14:25 | -31.60577 | 22.67928 | 8500 ft | 168 kts | 50° |
| 2026-04-20 14:25 | -31.60065 | 22.68616 | 8500 ft | 168 kts | 50° |
| 2026-04-20 14:26 | -31.59041 | 22.69987 | 8498 ft | 168 kts | 50° |
| 2026-04-20 14:26 | -31.58273 | 22.71016 | 8499 ft | 168 kts | 50° |
| 2026-04-20 14:26 | -31.57508 | 22.72042 | 8499 ft | 167 kts | 50° |
| 2026-04-20 14:26 | -31.56744 | 22.73066 | 8498 ft | 167 kts | 50° |
| 2026-04-20 14:27 | -31.55980 | 22.74088 | 8497 ft | 166 kts | 50° |
| 2026-04-20 14:27 | -31.55220 | 22.75104 | 8500 ft | 166 kts | 50° |
| 2026-04-20 14:27 | -31.54459 | 22.76121 | 8501 ft | 166 kts | 50° |
| 2026-04-20 14:27 | -31.53699 | 22.77138 | 8500 ft | 166 kts | 50° |
| 2026-04-20 14:28 | -31.52940 | 22.78152 | 8500 ft | 166 kts | 50° |
| 2026-04-20 14:28 | -31.52182 | 22.79165 | 8498 ft | 165 kts | 50° |
| 2026-04-20 14:28 | -31.51426 | 22.80177 | 8500 ft | 165 kts | 50° |
| 2026-04-20 14:28 | -31.50923 | 22.80848 | 8501 ft | 165 kts | 50° |
| 2026-04-20 14:29 | -31.50168 | 22.81857 | 8501 ft | 165 kts | 50° |
| 2026-04-20 14:29 | -31.49412 | 22.82866 | 8502 ft | 165 kts | 50° |
| 2026-04-20 14:29 | -31.48404 | 22.84211 | 8502 ft | 165 kts | 50° |
| 2026-04-20 14:29 | -31.47652 | 22.85216 | 8501 ft | 165 kts | 50° |
| 2026-04-20 14:30 | -31.47145 | 22.85893 | 8500 ft | 165 kts | 50° |
| 2026-04-20 14:30 | -31.46141 | 22.87234 | 8500 ft | 165 kts | 50° |
| 2026-04-20 14:30 | -31.45387 | 22.88240 | 8501 ft | 165 kts | 50° |
| 2026-04-20 14:30 | -31.44633 | 22.89244 | 8500 ft | 164 kts | 50° |
| 2026-04-20 14:31 | -31.43881 | 22.90246 | 8500 ft | 164 kts | 50° |
| 2026-04-20 14:31 | -31.43131 | 22.91246 | 8500 ft | 164 kts | 50° |
| 2026-04-20 14:31 | -31.42379 | 22.92248 | 8500 ft | 164 kts | 50° |
| 2026-04-20 14:31 | -31.41629 | 22.93249 | 8501 ft | 164 kts | 50° |
| 2026-04-20 14:32 | -31.40880 | 22.94247 | 8501 ft | 164 kts | 50° |
| 2026-04-20 14:32 | -31.40380 | 22.94913 | 8499 ft | 163 kts | 50° |
| 2026-04-20 14:32 | -31.39632 | 22.95910 | 8498 ft | 163 kts | 50° |
| 2026-04-20 14:32 | -31.38635 | 22.97235 | 8502 ft | 163 kts | 50° |
| 2026-04-20 14:33 | -31.37888 | 22.98229 | 8499 ft | 163 kts | 50° |
| 2026-04-20 14:33 | -31.37141 | 22.99222 | 8497 ft | 163 kts | 49° |
| 2026-04-20 14:33 | -31.36393 | 23.00213 | 8500 ft | 162 kts | 49° |
| 2026-04-20 14:33 | -31.35649 | 23.01204 | 8501 ft | 163 kts | 50° |
| 2026-04-20 14:34 | -31.35152 | 23.01865 | 8501 ft | 163 kts | 50° |
| 2026-04-20 14:34 | -31.34407 | 23.02856 | 8501 ft | 163 kts | 49° |
| 2026-04-20 14:34 | -31.33412 | 23.04178 | 8501 ft | 162 kts | 50° |
| 2026-04-20 14:34 | -31.32667 | 23.05168 | 8500 ft | 163 kts | 49° |
| 2026-04-20 14:35 | -31.31923 | 23.06157 | 8499 ft | 162 kts | 50° |
| 2026-04-20 14:35 | -31.31178 | 23.07146 | 8499 ft | 162 kts | 49° |
| 2026-04-20 14:35 | -31.30436 | 23.08132 | 8500 ft | 162 kts | 50° |
| 2026-04-20 14:35 | -31.29692 | 23.09118 | 8501 ft | 162 kts | 50° |
| 2026-04-20 14:36 | -31.28948 | 23.10105 | 8500 ft | 162 kts | 49° |
| 2026-04-20 14:36 | -31.28453 | 23.10762 | 8500 ft | 162 kts | 50° |
| 2026-04-20 14:36 | -31.27461 | 23.12078 | 8499 ft | 162 kts | 50° |
| 2026-04-20 14:36 | -31.26716 | 23.13066 | 8498 ft | 162 kts | 49° |
| 2026-04-20 14:37 | -31.25973 | 23.14049 | 8500 ft | 162 kts | 49° |
| 2026-04-20 14:37 | -31.25230 | 23.15034 | 8500 ft | 162 kts | 49° |
| 2026-04-20 14:37 | -31.24486 | 23.16019 | 8500 ft | 162 kts | 49° |
| 2026-04-20 14:37 | -31.23744 | 23.17002 | 8501 ft | 162 kts | 49° |
| 2026-04-20 14:38 | -31.23001 | 23.17986 | 8500 ft | 162 kts | 49° |
| 2026-04-20 14:38 | -31.22505 | 23.18643 | 8501 ft | 162 kts | 49° |
| 2026-04-20 14:38 | -31.21761 | 23.19628 | 8500 ft | 162 kts | 49° |
| 2026-04-20 14:38 | -31.20768 | 23.20942 | 8500 ft | 162 kts | 49° |
| 2026-04-20 14:39 | -31.20272 | 23.21598 | 8499 ft | 162 kts | 49° |
| 2026-04-20 14:39 | -31.19529 | 23.22580 | 8499 ft | 162 kts | 49° |
| 2026-04-20 14:39 | -31.18538 | 23.23891 | 8501 ft | 162 kts | 49° |
| 2026-04-20 14:39 | -31.17794 | 23.24873 | 8499 ft | 162 kts | 49° |
| 2026-04-20 14:40 | -31.17052 | 23.25855 | 8500 ft | 162 kts | 49° |
| 2026-04-20 14:40 | -31.16311 | 23.26838 | 8500 ft | 162 kts | 50° |
| 2026-04-20 14:40 | -31.15582 | 23.27837 | 8500 ft | 162 kts | 51° |
| 2026-04-20 14:40 | -31.14859 | 23.28839 | 8501 ft | 162 kts | 51° |
| 2026-04-20 14:41 | -31.14138 | 23.29842 | 8501 ft | 162 kts | 51° |
| 2026-04-20 14:41 | -31.13417 | 23.30844 | 8499 ft | 162 kts | 51° |
| 2026-04-20 14:41 | -31.12695 | 23.31844 | 8500 ft | 162 kts | 51° |
| 2026-04-20 14:41 | -31.11970 | 23.32846 | 8501 ft | 162 kts | 51° |
| 2026-04-20 14:42 | -31.11245 | 23.33845 | 8499 ft | 162 kts | 51° |
| 2026-04-20 14:42 | -31.10520 | 23.34845 | 8501 ft | 162 kts | 51° |
| 2026-04-20 14:42 | -31.09794 | 23.35847 | 8498 ft | 162 kts | 51° |
| 2026-04-20 14:42 | -31.09311 | 23.36513 | 8499 ft | 161 kts | 51° |
| 2026-04-20 14:43 | -31.08347 | 23.37838 | 8500 ft | 161 kts | 51° |
| 2026-04-20 14:43 | -31.07621 | 23.38837 | 8500 ft | 162 kts | 51° |
| 2026-04-20 14:43 | -31.06896 | 23.39834 | 8500 ft | 161 kts | 50° |
| 2026-04-20 14:43 | -31.06171 | 23.40830 | 8500 ft | 161 kts | 51° |
| 2026-04-20 14:44 | -31.05688 | 23.41494 | 8500 ft | 162 kts | 50° |
| 2026-04-20 14:44 | -31.04720 | 23.42824 | 8501 ft | 162 kts | 50° |
| 2026-04-20 14:44 | -31.03995 | 23.43822 | 8500 ft | 162 kts | 51° |
| 2026-04-20 14:44 | -31.03268 | 23.44820 | 8499 ft | 162 kts | 51° |
| 2026-04-20 14:45 | -31.02544 | 23.45814 | 8500 ft | 161 kts | 50° |
| 2026-04-20 14:45 | -31.01817 | 23.46812 | 8500 ft | 161 kts | 51° |
| 2026-04-20 14:45 | -31.01093 | 23.47806 | 8500 ft | 161 kts | 50° |
| 2026-04-20 14:45 | -31.00367 | 23.48802 | 8500 ft | 161 kts | 51° |
| 2026-04-20 14:46 | -30.99646 | 23.49792 | 8500 ft | 161 kts | 50° |
| 2026-04-20 14:46 | -30.98920 | 23.50785 | 8501 ft | 161 kts | 50° |
| 2026-04-20 14:46 | -30.98439 | 23.51446 | 8500 ft | 161 kts | 50° |
| 2026-04-20 14:46 | -30.97471 | 23.52773 | 8500 ft | 161 kts | 50° |
| 2026-04-20 14:47 | -30.96747 | 23.53766 | 8501 ft | 161 kts | 50° |
| 2026-04-20 14:47 | -30.96021 | 23.54761 | 8500 ft | 161 kts | 50° |
| 2026-04-20 14:47 | -30.95296 | 23.55754 | 8500 ft | 162 kts | 50° |
| 2026-04-20 14:48 | -30.93845 | 23.57742 | 8500 ft | 161 kts | 50° |
| 2026-04-20 14:48 | -30.93118 | 23.58735 | 8500 ft | 161 kts | 50° |
| 2026-04-20 14:48 | -30.92392 | 23.59729 | 8500 ft | 162 kts | 50° |
| 2026-04-20 14:48 | -30.91664 | 23.60724 | 8501 ft | 162 kts | 50° |
| 2026-04-20 14:49 | -30.90939 | 23.61716 | 8494 ft | 161 kts | 50° |
| 2026-04-20 14:49 | -30.90213 | 23.62707 | 8503 ft | 161 kts | 50° |
| 2026-04-20 14:49 | -30.89487 | 23.63699 | 8503 ft | 162 kts | 50° |
| 2026-04-20 14:49 | -30.88759 | 23.64695 | 8503 ft | 162 kts | 50° |
| 2026-04-20 14:50 | -30.88275 | 23.65358 | 8502 ft | 162 kts | 50° |
| 2026-04-20 14:50 | -30.87303 | 23.66687 | 8501 ft | 162 kts | 50° |
| 2026-04-20 14:50 | -30.86576 | 23.67681 | 8500 ft | 162 kts | 50° |
| 2026-04-20 14:50 | -30.85847 | 23.68675 | 8498 ft | 162 kts | 50° |
| 2026-04-20 14:51 | -30.85119 | 23.69670 | 8500 ft | 162 kts | 50° |
| 2026-04-20 14:51 | -30.84633 | 23.70333 | 8501 ft | 162 kts | 50° |
| 2026-04-20 14:51 | -30.83666 | 23.71651 | 8501 ft | 163 kts | 50° |
| 2026-04-20 14:51 | -30.82923 | 23.72667 | 8501 ft | 164 kts | 50° |
| 2026-04-20 14:52 | -30.82180 | 23.73682 | 8500 ft | 165 kts | 51° |
| 2026-04-20 14:52 | -30.81438 | 23.74697 | 8499 ft | 165 kts | 50° |
| 2026-04-20 14:52 | -30.80695 | 23.75712 | 8499 ft | 166 kts | 50° |
| 2026-04-20 14:52 | -30.79953 | 23.76727 | 8499 ft | 165 kts | 50° |
| 2026-04-20 14:53 | -30.79206 | 23.77745 | 8499 ft | 165 kts | 50° |
| 2026-04-20 14:53 | -30.78707 | 23.78424 | 8500 ft | 166 kts | 50° |
| 2026-04-20 14:53 | -30.77707 | 23.79785 | 8500 ft | 167 kts | 50° |
| 2026-04-20 14:53 | -30.76955 | 23.80811 | 8499 ft | 167 kts | 50° |
| 2026-04-20 14:54 | -30.76205 | 23.81833 | 8500 ft | 166 kts | 50° |
| 2026-04-20 14:54 | -30.75457 | 23.82849 | 8500 ft | 166 kts | 50° |
| 2026-04-20 14:54 | -30.74711 | 23.83862 | 8499 ft | 166 kts | 50° |
| 2026-04-20 14:54 | -30.73963 | 23.84880 | 8502 ft | 167 kts | 50° |
| 2026-04-20 14:55 | -30.73205 | 23.85911 | 8502 ft | 167 kts | 50° |
| 2026-04-20 14:55 | -30.72455 | 23.86930 | 8500 ft | 167 kts | 50° |
| 2026-04-20 14:55 | -30.71697 | 23.87963 | 8500 ft | 168 kts | 50° |
| 2026-04-20 14:55 | -30.70942 | 23.88990 | 8501 ft | 168 kts | 50° |
| 2026-04-20 14:56 | -30.70189 | 23.90013 | 8499 ft | 166 kts | 50° |
| 2026-04-20 14:56 | -30.69443 | 23.91022 | 8499 ft | 165 kts | 50° |
| 2026-04-20 14:56 | -30.68691 | 23.92042 | 8501 ft | 169 kts | 50° |
| 2026-04-20 14:56 | -30.67931 | 23.93078 | 8500 ft | 169 kts | 50° |
| 2026-04-20 14:57 | -30.67165 | 23.94121 | 8500 ft | 170 kts | 50° |
| 2026-04-20 14:57 | -30.66394 | 23.95167 | 8500 ft | 170 kts | 50° |
| 2026-04-20 14:57 | -30.65883 | 23.95859 | 8500 ft | 170 kts | 50° |
| 2026-04-20 14:57 | -30.64859 | 23.97247 | 8500 ft | 170 kts | 50° |
| 2026-04-20 14:58 | -30.64091 | 23.98286 | 8500 ft | 170 kts | 50° |
| 2026-04-20 14:58 | -30.63579 | 23.98978 | 8499 ft | 169 kts | 50° |
| 2026-04-20 14:58 | -30.62819 | 24.00008 | 8500 ft | 169 kts | 50° |
| 2026-04-20 14:58 | -30.61806 | 24.01379 | 8501 ft | 168 kts | 50° |
| 2026-04-20 14:59 | -30.61053 | 24.02398 | 8500 ft | 167 kts | 50° |
| 2026-04-20 14:59 | -30.60290 | 24.03428 | 8500 ft | 167 kts | 50° |
| 2026-04-20 14:59 | -30.59540 | 24.04440 | 8500 ft | 167 kts | 50° |
| 2026-04-20 14:59 | -30.58783 | 24.05463 | 8499 ft | 166 kts | 50° |
| 2026-04-20 15:00 | -30.58284 | 24.06136 | 8500 ft | 166 kts | 50° |
| 2026-04-20 15:00 | -30.57544 | 24.07136 | 8500 ft | 165 kts | 50° |
| 2026-04-20 15:00 | -30.56539 | 24.08491 | 8500 ft | 165 kts | 50° |
| 2026-04-20 15:00 | -30.56041 | 24.09163 | 8500 ft | 165 kts | 50° |
| 2026-04-20 15:01 | -30.55292 | 24.10175 | 8500 ft | 166 kts | 50° |
| 2026-04-20 15:01 | -30.54543 | 24.11188 | 8500 ft | 166 kts | 50° |
| 2026-04-20 15:01 | -30.53792 | 24.12204 | 8500 ft | 166 kts | 50° |
| 2026-04-20 15:01 | -30.52798 | 24.13543 | 8500 ft | 165 kts | 50° |
| 2026-04-20 15:02 | -30.52310 | 24.14200 | 8500 ft | 164 kts | 50° |
| 2026-04-20 15:02 | -30.51555 | 24.15218 | 8500 ft | 165 kts | 50° |
| 2026-04-20 15:02 | -30.50567 | 24.16550 | 8501 ft | 0 kts | 50° |
| 2026-04-20 15:02 | -30.50070 | 24.17190 | 8993 ft | 118 kts | 47° |
| 2026-04-20 15:03 | -30.49435 | 24.17960 | 8974 ft | 146 kts | 47° |
| 2026-04-20 15:03 | -30.48949 | 24.18565 | 8902 ft | 162 kts | 48° |
| 2026-04-20 15:03 | -30.48175 | 24.19582 | 8781 ft | 168 kts | 50° |
| 2026-04-20 15:03 | -30.47424 | 24.20599 | 8652 ft | 167 kts | 50° |
| 2026-04-20 15:04 | -30.46394 | 24.21998 | 8556 ft | 172 kts | 50° |
| 2026-04-20 15:04 | -30.45888 | 24.22683 | 8577 ft | 169 kts | 50° |
| 2026-04-20 15:04 | -30.45117 | 24.23721 | 8583 ft | 168 kts | 50° |
| 2026-04-20 15:04 | -30.44098 | 24.25094 | 8540 ft | 169 kts | 50° |
| 2026-04-20 15:05 | -30.43585 | 24.25786 | 8531 ft | 169 kts | 50° |
| 2026-04-20 15:05 | -30.42820 | 24.26816 | 8507 ft | 169 kts | 50° |
| 2026-04-20 15:05 | -30.41804 | 24.28182 | 8501 ft | 168 kts | 50° |
| 2026-04-20 15:05 | -30.41045 | 24.29200 | 8501 ft | 168 kts | 50° |
| 2026-04-20 15:06 | -30.40536 | 24.29884 | 8501 ft | 167 kts | 50° |
| 2026-04-20 15:06 | -30.39787 | 24.30890 | 8502 ft | 167 kts | 50° |
| 2026-04-20 15:06 | -30.39019 | 24.31923 | 8501 ft | 167 kts | 50° |
| 2026-04-20 15:06 | -30.38267 | 24.32932 | 8500 ft | 166 kts | 50° |
| 2026-04-20 15:07 | -30.37271 | 24.34269 | 8500 ft | 166 kts | 50° |
| 2026-04-20 15:07 | -30.36513 | 24.35286 | 8501 ft | 166 kts | 50° |
| 2026-04-20 15:07 | -30.36011 | 24.35958 | 8496 ft | 165 kts | 50° |
| 2026-04-20 15:07 | -30.35011 | 24.37300 | 8498 ft | 165 kts | 50° |
| 2026-04-20 15:08 | -30.34516 | 24.37963 | 8495 ft | 164 kts | 50° |
| 2026-04-20 15:08 | -30.33767 | 24.38963 | 8502 ft | 165 kts | 50° |
| 2026-04-20 15:08 | -30.33020 | 24.39965 | 8503 ft | 166 kts | 50° |
| 2026-04-20 15:08 | -30.32266 | 24.40978 | 8503 ft | 166 kts | 50° |
| 2026-04-20 15:09 | -30.31512 | 24.41991 | 8501 ft | 166 kts | 50° |
| 2026-04-20 15:09 | -30.30767 | 24.42989 | 8501 ft | 166 kts | 50° |
| 2026-04-20 15:09 | -30.30011 | 24.44001 | 8501 ft | 166 kts | 50° |
| 2026-04-20 15:09 | -30.29259 | 24.45006 | 8500 ft | 165 kts | 50° |
| 2026-04-20 15:10 | -30.28510 | 24.46008 | 8499 ft | 166 kts | 50° |
| 2026-04-20 15:10 | -30.27754 | 24.47018 | 8499 ft | 166 kts | 50° |
| 2026-04-20 15:10 | -30.27001 | 24.48024 | 8499 ft | 166 kts | 50° |
| 2026-04-20 15:10 | -30.26250 | 24.49029 | 8500 ft | 165 kts | 50° |
| 2026-04-20 15:11 | -30.25500 | 24.50032 | 8500 ft | 165 kts | 50° |
| 2026-04-20 15:11 | -30.24751 | 24.51033 | 8500 ft | 165 kts | 49° |
| 2026-04-20 15:11 | -30.23790 | 24.52346 | 8501 ft | 165 kts | 52° |
| 2026-04-20 15:11 | -30.23305 | 24.53034 | 8500 ft | 165 kts | 52° |
| 2026-04-20 15:12 | -30.22574 | 24.54061 | 8500 ft | 165 kts | 51° |
| 2026-04-20 15:12 | -30.21591 | 24.55410 | 8500 ft | 166 kts | 50° |
| 2026-04-20 15:12 | -30.21089 | 24.56090 | 8501 ft | 166 kts | 50° |
| 2026-04-20 15:12 | -30.20334 | 24.57104 | 8500 ft | 166 kts | 50° |
| 2026-04-20 15:13 | -30.19578 | 24.58115 | 8500 ft | 166 kts | 50° |
| 2026-04-20 15:13 | -30.18824 | 24.59121 | 8499 ft | 166 kts | 50° |
| 2026-04-20 15:13 | -30.18070 | 24.60127 | 8500 ft | 167 kts | 50° |
| 2026-04-20 15:13 | -30.17311 | 24.61138 | 8499 ft | 167 kts | 50° |
| 2026-04-20 15:14 | -30.16551 | 24.62152 | 8499 ft | 167 kts | 50° |
| 2026-04-20 15:14 | -30.15792 | 24.63163 | 8500 ft | 167 kts | 50° |
| 2026-04-20 15:14 | -30.15030 | 24.64178 | 8500 ft | 167 kts | 50° |
| 2026-04-20 15:14 | -30.14273 | 24.65187 | 8500 ft | 168 kts | 50° |
| 2026-04-20 15:15 | -30.13507 | 24.66208 | 8499 ft | 168 kts | 50° |
| 2026-04-20 15:15 | -30.12489 | 24.67561 | 8500 ft | 168 kts | 50° |
| 2026-04-20 15:15 | -30.11981 | 24.68237 | 8500 ft | 167 kts | 50° |
| 2026-04-20 15:15 | -30.11221 | 24.69248 | 8500 ft | 167 kts | 50° |
| 2026-04-20 15:16 | -30.10459 | 24.70261 | 8500 ft | 167 kts | 50° |
| 2026-04-20 15:16 | -30.09702 | 24.71267 | 8500 ft | 166 kts | 50° |
| 2026-04-20 15:16 | -30.08944 | 24.72274 | 8501 ft | 166 kts | 50° |
| 2026-04-20 15:16 | -30.07934 | 24.73617 | 8500 ft | 167 kts | 50° |
| 2026-04-20 15:17 | -30.07427 | 24.74291 | 8500 ft | 167 kts | 50° |
| 2026-04-20 15:17 | -30.06670 | 24.75297 | 8500 ft | 166 kts | 50° |
| 2026-04-20 15:17 | -30.05913 | 24.76302 | 8500 ft | 166 kts | 50° |
| 2026-04-20 15:17 | -30.04903 | 24.77642 | 8500 ft | 166 kts | 50° |
| 2026-04-20 15:18 | -30.04151 | 24.78639 | 8502 ft | 166 kts | 50° |
| 2026-04-20 15:18 | -30.03644 | 24.79313 | 8502 ft | 166 kts | 50° |
| 2026-04-20 15:18 | -30.02886 | 24.80318 | 8500 ft | 166 kts | 50° |
| 2026-04-20 15:18 | -30.02127 | 24.81323 | 8499 ft | 166 kts | 50° |
| 2026-04-20 15:19 | -30.01119 | 24.82661 | 8500 ft | 166 kts | 50° |
| 2026-04-20 15:19 | -30.00361 | 24.83666 | 8498 ft | 166 kts | 50° |
| 2026-04-20 15:19 | -29.99605 | 24.84669 | 8501 ft | 167 kts | 50° |
| 2026-04-20 15:19 | -29.98845 | 24.85678 | 8501 ft | 168 kts | 50° |
| 2026-04-20 15:20 | -29.98077 | 24.86696 | 8500 ft | 168 kts | 50° |
| 2026-04-20 15:20 | -29.97565 | 24.87376 | 8500 ft | 169 kts | 50° |
| 2026-04-20 15:20 | -29.96541 | 24.88734 | 8499 ft | 168 kts | 50° |
| 2026-04-20 15:20 | -29.96032 | 24.89408 | 8499 ft | 168 kts | 50° |
| 2026-04-20 15:21 | -29.95268 | 24.90418 | 8499 ft | 167 kts | 50° |
| 2026-04-20 15:21 | -29.94503 | 24.91427 | 8500 ft | 168 kts | 50° |
| 2026-04-20 15:21 | -29.93735 | 24.92445 | 8500 ft | 169 kts | 50° |
| 2026-04-20 15:21 | -29.92706 | 24.93807 | 8500 ft | 170 kts | 50° |
| 2026-04-20 15:22 | -29.92192 | 24.94488 | 8500 ft | 169 kts | 50° |
| 2026-04-20 15:22 | -29.91416 | 24.95513 | 8500 ft | 170 kts | 50° |
| 2026-04-20 15:22 | -29.90641 | 24.96536 | 8500 ft | 170 kts | 50° |
| 2026-04-20 15:22 | -29.89864 | 24.97564 | 8500 ft | 170 kts | 50° |
| 2026-04-20 15:23 | -29.89087 | 24.98589 | 8499 ft | 170 kts | 50° |
| 2026-04-20 15:23 | -29.88309 | 24.99616 | 8500 ft | 170 kts | 50° |
| 2026-04-20 15:23 | -29.87534 | 25.00639 | 8499 ft | 170 kts | 50° |
| 2026-04-20 15:23 | -29.86499 | 25.02003 | 8499 ft | 170 kts | 50° |
| 2026-04-20 15:24 | -29.85983 | 25.02685 | 8499 ft | 170 kts | 50° |
| 2026-04-20 15:24 | -29.85209 | 25.03705 | 8500 ft | 170 kts | 50° |
| 2026-04-20 15:24 | -29.84434 | 25.04728 | 8500 ft | 169 kts | 50° |
| 2026-04-20 15:24 | -29.83665 | 25.05740 | 8501 ft | 169 kts | 50° |
| 2026-04-20 15:25 | -29.82892 | 25.06760 | 8500 ft | 169 kts | 50° |
| 2026-04-20 15:25 | -29.82121 | 25.07776 | 8500 ft | 169 kts | 50° |
| 2026-04-20 15:25 | -29.81353 | 25.08787 | 8499 ft | 165 kts | 50° |
| 2026-04-20 15:25 | -29.80615 | 25.09749 | 8497 ft | 157 kts | 49° |
| 2026-04-20 15:26 | -29.79901 | 25.10675 | 8495 ft | 152 kts | 49° |
| 2026-04-20 15:26 | -29.79209 | 25.11573 | 8500 ft | 150 kts | 49° |
| 2026-04-20 15:26 | -29.78526 | 25.12463 | 8501 ft | 147 kts | 49° |
| 2026-04-20 15:26 | -29.77855 | 25.13337 | 8500 ft | 145 kts | 50° |
| 2026-04-20 15:27 | -29.77188 | 25.14205 | 8502 ft | 145 kts | 49° |
| 2026-04-20 15:27 | -29.76543 | 25.15097 | 8368 ft | 146 kts | 39° |
| 2026-04-20 15:27 | -29.75922 | 25.15944 | 8453 ft | 131 kts | 37° |
| 2026-04-20 15:27 | -29.75331 | 25.16717 | 8490 ft | 126 kts | 35° |
| 2026-04-20 15:28 | -29.74739 | 25.17463 | 8506 ft | 128 kts | 36° |
| 2026-04-20 15:28 | -29.74146 | 25.18214 | 8500 ft | 132 kts | 36° |
| 2026-04-20 15:28 | -29.73497 | 25.19034 | 8507 ft | 143 kts | 38° |
| 2026-04-20 15:28 | -29.72829 | 25.19909 | 8504 ft | 148 kts | 38° |
| 2026-04-20 15:29 | -29.72137 | 25.20820 | 8515 ft | 154 kts | 42° |
| 2026-04-20 15:29 | -29.71440 | 25.21792 | 8540 ft | 162 kts | 51° |
| 2026-04-20 15:29 | -29.70838 | 25.22908 | 8563 ft | 167 kts | 57° |
| 2026-04-20 15:29 | -29.70241 | 25.24068 | 8609 ft | 170 kts | 56° |
| 2026-04-20 15:30 | -29.69613 | 25.25222 | 8648 ft | 171 kts | 55° |
| 2026-04-20 15:30 | -29.68967 | 25.26380 | 8673 ft | 173 kts | 54° |
| 2026-04-20 15:30 | -29.68308 | 25.27543 | 8688 ft | 175 kts | 54° |
| 2026-04-20 15:30 | -29.67640 | 25.28719 | 8686 ft | 177 kts | 54° |
| 2026-04-20 15:31 | -29.66970 | 25.29901 | 8689 ft | 178 kts | 54° |
| 2026-04-20 15:31 | -29.66295 | 25.31096 | 8692 ft | 178 kts | 54° |
| 2026-04-20 15:31 | -29.65621 | 25.32286 | 8694 ft | 179 kts | 54° |
| 2026-04-20 15:31 | -29.64945 | 25.33477 | 8691 ft | 178 kts | 54° |
| 2026-04-20 15:32 | -29.64274 | 25.34661 | 8689 ft | 177 kts | 54° |
| 2026-04-20 15:32 | -29.63601 | 25.35847 | 8688 ft | 177 kts | 54° |
| 2026-04-20 15:32 | -29.62930 | 25.37033 | 8692 ft | 177 kts | 54° |
| 2026-04-20 15:32 | -29.62289 | 25.38170 | 8680 ft | 154 kts | 54° |
| 2026-04-20 15:33 | -29.61777 | 25.39098 | 8667 ft | 123 kts | 53° |
| 2026-04-20 15:33 | -29.61342 | 25.39865 | 8600 ft | 110 kts | 51° |
| 2026-04-20 15:33 | -29.60924 | 25.40572 | 8596 ft | 108 kts | 50° |
| 2026-04-20 15:33 | -29.60437 | 25.41336 | 8672 ft | 130 kts | 50° |
| 2026-04-20 15:34 | -29.59870 | 25.42260 | 8702 ft | 152 kts | 52° |
| 2026-04-20 15:34 | -29.59263 | 25.43329 | 8698 ft | 166 kts | 54° |
| 2026-04-20 15:34 | -29.58636 | 25.44477 | 8694 ft | 173 kts | 55° |
| 2026-04-20 15:34 | -29.57991 | 25.45658 | 8684 ft | 176 kts | 55° |
| 2026-04-20 15:35 | -29.57334 | 25.46847 | 8685 ft | 178 kts | 54° |
| 2026-04-20 15:35 | -29.56666 | 25.48047 | 8697 ft | 179 kts | 54° |
| 2026-04-20 15:35 | -29.55989 | 25.49249 | 8697 ft | 180 kts | 54° |
| 2026-04-20 15:35 | -29.55310 | 25.50452 | 8693 ft | 179 kts | 54° |
| 2026-04-20 15:36 | -29.54633 | 25.51650 | 8693 ft | 179 kts | 54° |
| 2026-04-20 15:36 | -29.53958 | 25.52838 | 8694 ft | 178 kts | 54° |
| 2026-04-20 15:36 | -29.53287 | 25.54018 | 8697 ft | 177 kts | 54° |
| 2026-04-20 15:36 | -29.52617 | 25.55197 | 8699 ft | 176 kts | 54° |
| 2026-04-20 15:37 | -29.51963 | 25.56375 | 8697 ft | 176 kts | 59° |
| 2026-04-20 15:37 | -29.51728 | 25.57744 | 8699 ft | 179 kts | 89° |
| 2026-04-20 15:37 | -29.51748 | 25.59178 | 8701 ft | 178 kts | 89° |
| 2026-04-20 15:37 | -29.51749 | 25.60604 | 8704 ft | 179 kts | 88° |
| 2026-04-20 15:38 | -29.51745 | 25.62028 | 8703 ft | 179 kts | 88° |
| 2026-04-20 15:38 | -29.51741 | 25.63455 | 8702 ft | 179 kts | 88° |
| 2026-04-20 15:38 | -29.51737 | 25.64885 | 8702 ft | 179 kts | 88° |
| 2026-04-20 15:38 | -29.51735 | 25.66315 | 8701 ft | 180 kts | 88° |
| 2026-04-20 15:39 | -29.51733 | 25.67745 | 8701 ft | 179 kts | 88° |
| 2026-04-20 15:39 | -29.51732 | 25.69167 | 8701 ft | 179 kts | 88° |
| 2026-04-20 15:39 | -29.51729 | 25.70587 | 8702 ft | 179 kts | 88° |
| 2026-04-20 15:39 | -29.51725 | 25.72012 | 8704 ft | 178 kts | 88° |
| 2026-04-20 15:40 | -29.51721 | 25.73430 | 8703 ft | 178 kts | 88° |
| 2026-04-20 15:40 | -29.51718 | 25.74848 | 8700 ft | 177 kts | 88° |
| 2026-04-20 15:40 | -29.51712 | 25.76260 | 8701 ft | 177 kts | 88° |
| 2026-04-20 15:40 | -29.51707 | 25.77671 | 8702 ft | 177 kts | 88° |
| 2026-04-20 15:41 | -29.51702 | 25.79081 | 8702 ft | 177 kts | 88° |
| 2026-04-20 15:41 | -29.51699 | 25.80488 | 8702 ft | 177 kts | 88° |
| 2026-04-20 15:41 | -29.51695 | 25.81901 | 8702 ft | 177 kts | 88° |
| 2026-04-20 15:41 | -29.51691 | 25.83312 | 8702 ft | 177 kts | 88° |
| 2026-04-20 15:42 | -29.51686 | 25.84726 | 8702 ft | 177 kts | 88° |
| 2026-04-20 15:42 | -29.51683 | 25.86141 | 8702 ft | 178 kts | 88° |
| 2026-04-20 15:42 | -29.51677 | 25.87551 | 8702 ft | 177 kts | 88° |
| 2026-04-20 15:42 | -29.51672 | 25.88965 | 8701 ft | 177 kts | 88° |
| 2026-04-20 15:43 | -29.51667 | 25.90377 | 8702 ft | 177 kts | 88° |
| 2026-04-20 15:43 | -29.51661 | 25.91794 | 8701 ft | 178 kts | 88° |
| 2026-04-20 15:43 | -29.51658 | 25.93208 | 8701 ft | 177 kts | 88° |
| 2026-04-20 15:43 | -29.51653 | 25.94624 | 8702 ft | 178 kts | 88° |
| 2026-04-20 15:44 | -29.51647 | 25.96041 | 8701 ft | 178 kts | 88° |
| 2026-04-20 15:44 | -29.51640 | 25.97458 | 8702 ft | 178 kts | 88° |
| 2026-04-20 15:44 | -29.51633 | 25.98874 | 8701 ft | 178 kts | 88° |
| 2026-04-20 15:44 | -29.51627 | 26.00288 | 8701 ft | 178 kts | 88° |
| 2026-04-20 15:45 | -29.51620 | 26.01707 | 8701 ft | 178 kts | 88° |
| 2026-04-20 15:45 | -29.51614 | 26.03120 | 8702 ft | 178 kts | 88° |
| 2026-04-20 15:45 | -29.51608 | 26.04536 | 8701 ft | 177 kts | 88° |
| 2026-04-20 15:45 | -29.51601 | 26.05943 | 8701 ft | 177 kts | 88° |
| 2026-04-20 15:46 | -29.51592 | 26.07329 | 8702 ft | 176 kts | 88° |
| 2026-04-20 15:46 | -29.51585 | 26.08750 | 8702 ft | 175 kts | 88° |
| 2026-04-20 15:46 | -29.51581 | 26.10145 | 8703 ft | 176 kts | 88° |
| 2026-04-20 15:46 | -29.51574 | 26.11544 | 8705 ft | 175 kts | 88° |
| 2026-04-20 15:47 | -29.51564 | 26.12942 | 8703 ft | 176 kts | 88° |
| 2026-04-20 15:47 | -29.51555 | 26.14344 | 8702 ft | 176 kts | 88° |
| 2026-04-20 15:47 | -29.51547 | 26.15752 | 8702 ft | 177 kts | 88° |
| 2026-04-20 15:47 | -29.51540 | 26.17163 | 8703 ft | 177 kts | 88° |
| 2026-04-20 15:48 | -29.51532 | 26.18566 | 8702 ft | 176 kts | 88° |
| 2026-04-20 15:48 | -29.51523 | 26.19968 | 8701 ft | 176 kts | 88° |
| 2026-04-20 15:48 | -29.51520 | 26.21371 | 8700 ft | 176 kts | 90° |
| 2026-04-20 15:48 | -29.51650 | 26.22768 | 8703 ft | 176 kts | 94° |
| 2026-04-20 15:49 | -29.51686 | 26.24168 | 8701 ft | 176 kts | 88° |
| 2026-04-20 15:49 | -29.51644 | 26.25571 | 8701 ft | 176 kts | 86° |
| 2026-04-20 15:49 | -29.51588 | 26.26974 | 8703 ft | 176 kts | 86° |
| 2026-04-20 15:49 | -29.51537 | 26.28368 | 8701 ft | 176 kts | 86° |
| 2026-04-20 15:50 | -29.51500 | 26.29766 | 8703 ft | 176 kts | 87° |
| 2026-04-20 15:50 | -29.51471 | 26.31176 | 8703 ft | 178 kts | 87° |
| 2026-04-20 15:50 | -29.51452 | 26.32600 | 8701 ft | 180 kts | 88° |
| 2026-04-20 15:50 | -29.51440 | 26.34041 | 8705 ft | 184 kts | 88° |
| 2026-04-20 15:51 | -29.51433 | 26.35519 | 8702 ft | 187 kts | 88° |
| 2026-04-20 15:51 | -29.51423 | 26.37016 | 8702 ft | 189 kts | 88° |
| 2026-04-20 15:51 | -29.51414 | 26.38518 | 8701 ft | 190 kts | 88° |
| 2026-04-20 15:51 | -29.51402 | 26.40037 | 8701 ft | 190 kts | 88° |
| 2026-04-20 15:52 | -29.51388 | 26.41558 | 8703 ft | 191 kts | 88° |
| 2026-04-20 15:52 | -29.51375 | 26.43074 | 8704 ft | 191 kts | 88° |
| 2026-04-20 15:52 | -29.51361 | 26.44595 | 8700 ft | 190 kts | 88° |
| 2026-04-20 15:53 | -29.51336 | 26.47627 | 8702 ft | 191 kts | 88° |
| 2026-04-20 15:53 | -29.51326 | 26.49145 | 8702 ft | 191 kts | 88° |
| 2026-04-20 15:53 | -29.51314 | 26.50662 | 8702 ft | 190 kts | 88° |
| 2026-04-20 15:53 | -29.51301 | 26.52176 | 8702 ft | 190 kts | 88° |
| 2026-04-20 15:54 | -29.51289 | 26.53686 | 8702 ft | 190 kts | 88° |
| 2026-04-20 15:54 | -29.51276 | 26.55175 | 8704 ft | 190 kts | 88° |
| 2026-04-20 15:54 | -29.51263 | 26.56711 | 8701 ft | 189 kts | 88° |
| 2026-04-20 15:54 | -29.51250 | 26.58213 | 8701 ft | 188 kts | 88° |
| 2026-04-20 15:55 | -29.51238 | 26.59715 | 8701 ft | 189 kts | 88° |
| 2026-04-20 15:55 | -29.51225 | 26.61223 | 8704 ft | 189 kts | 88° |
| 2026-04-20 15:55 | -29.51211 | 26.62728 | 8700 ft | 189 kts | 88° |
| 2026-04-20 15:55 | -29.51194 | 26.64231 | 8700 ft | 189 kts | 88° |
| 2026-04-20 15:56 | -29.51175 | 26.65733 | 8702 ft | 188 kts | 88° |
| 2026-04-20 15:56 | -29.51163 | 26.67225 | 8701 ft | 188 kts | 88° |
| 2026-04-20 15:56 | -29.51151 | 26.68724 | 8703 ft | 188 kts | 88° |
| 2026-04-20 15:56 | -29.51138 | 26.70223 | 8702 ft | 188 kts | 88° |
| 2026-04-20 15:57 | -29.51125 | 26.71715 | 8702 ft | 188 kts | 88° |
| 2026-04-20 15:57 | -29.51111 | 26.73216 | 8703 ft | 188 kts | 88° |
| 2026-04-20 15:57 | -29.51096 | 26.74712 | 8703 ft | 188 kts | 88° |
| 2026-04-20 15:57 | -29.51082 | 26.76213 | 8701 ft | 188 kts | 88° |
| 2026-04-20 15:58 | -29.51068 | 26.77705 | 8705 ft | 188 kts | 88° |
| 2026-04-20 15:58 | -29.51051 | 26.79207 | 8702 ft | 188 kts | 88° |
| 2026-04-20 15:58 | -29.51034 | 26.80702 | 8701 ft | 188 kts | 88° |
| 2026-04-20 15:58 | -29.51017 | 26.82206 | 8704 ft | 188 kts | 88° |
| 2026-04-20 15:59 | -29.51001 | 26.83709 | 8700 ft | 189 kts | 88° |
| 2026-04-20 15:59 | -29.50984 | 26.85212 | 8694 ft | 188 kts | 88° |
| 2026-04-20 15:59 | -29.50970 | 26.86705 | 8695 ft | 188 kts | 88° |
| 2026-04-20 15:59 | -29.50956 | 26.88190 | 8690 ft | 186 kts | 88° |
| 2026-04-20 16:00 | -29.50940 | 26.89673 | 8691 ft | 185 kts | 88° |
| 2026-04-20 16:00 | -29.50919 | 26.91154 | 8692 ft | 186 kts | 88° |
| 2026-04-20 16:00 | -29.50902 | 26.92635 | 8695 ft | 186 kts | 88° |
| 2026-04-20 16:00 | -29.50886 | 26.94115 | 8696 ft | 186 kts | 88° |
| 2026-04-20 16:01 | -29.50869 | 26.95597 | 8693 ft | 186 kts | 88° |
| 2026-04-20 16:01 | -29.50853 | 26.97064 | 8693 ft | 185 kts | 88° |
| 2026-04-20 16:01 | -29.50835 | 26.98537 | 8693 ft | 184 kts | 88° |
| 2026-04-20 16:01 | -29.50812 | 26.99999 | 8693 ft | 184 kts | 88° |
| 2026-04-20 16:02 | -29.50792 | 27.01468 | 8694 ft | 184 kts | 88° |
| 2026-04-20 16:02 | -29.50774 | 27.02931 | 8694 ft | 184 kts | 88° |
| 2026-04-20 16:02 | -29.50756 | 27.04395 | 8697 ft | 184 kts | 88° |
| 2026-04-20 16:02 | -29.50737 | 27.05865 | 8691 ft | 184 kts | 88° |
| 2026-04-20 16:03 | -29.50718 | 27.07329 | 8691 ft | 183 kts | 88° |
| 2026-04-20 16:03 | -29.50700 | 27.08790 | 8693 ft | 184 kts | 88° |
| 2026-04-20 16:03 | -29.50682 | 27.10254 | 8693 ft | 183 kts | 88° |
| 2026-04-20 16:03 | -29.50664 | 27.11715 | 8693 ft | 184 kts | 88° |
| 2026-04-20 16:04 | -29.50645 | 27.13181 | 8694 ft | 184 kts | 88° |
| 2026-04-20 16:04 | -29.50625 | 27.14646 | 8694 ft | 185 kts | 88° |
| 2026-04-20 16:04 | -29.50611 | 27.16124 | 8693 ft | 185 kts | 88° |
| 2026-04-20 16:04 | -29.50589 | 27.17590 | 8697 ft | 185 kts | 88° |
| 2026-04-20 16:05 | -29.50566 | 27.19070 | 8689 ft | 185 kts | 88° |
| 2026-04-20 16:05 | -29.50548 | 27.20540 | 8692 ft | 185 kts | 88° |
| 2026-04-20 16:05 | -29.50528 | 27.22017 | 8692 ft | 187 kts | 88° |
| 2026-04-20 16:05 | -29.50508 | 27.23521 | 8697 ft | 189 kts | 88° |
| 2026-04-20 16:06 | -29.50486 | 27.25028 | 8691 ft | 190 kts | 88° |
| 2026-04-20 16:06 | -29.50465 | 27.26539 | 8692 ft | 190 kts | 88° |
| 2026-04-20 16:06 | -29.50444 | 27.28039 | 8691 ft | 190 kts | 88° |
| 2026-04-20 16:06 | -29.50423 | 27.29557 | 8690 ft | 189 kts | 88° |
| 2026-04-20 16:07 | -29.50401 | 27.31060 | 8693 ft | 189 kts | 88° |
| 2026-04-20 16:07 | -29.50379 | 27.32565 | 8692 ft | 189 kts | 88° |
| 2026-04-20 16:07 | -29.50359 | 27.34067 | 8694 ft | 188 kts | 88° |
| 2026-04-20 16:07 | -29.50337 | 27.35556 | 8699 ft | 188 kts | 88° |
| 2026-04-20 16:08 | -29.50316 | 27.37058 | 8692 ft | 188 kts | 88° |
| 2026-04-20 16:08 | -29.50294 | 27.38541 | 8677 ft | 188 kts | 88° |
| 2026-04-20 16:08 | -29.50268 | 27.40052 | 8683 ft | 187 kts | 88° |
| 2026-04-20 16:08 | -29.50246 | 27.41527 | 8683 ft | 186 kts | 88° |
| 2026-04-20 16:09 | -29.50226 | 27.43012 | 8684 ft | 186 kts | 88° |
| 2026-04-20 16:09 | -29.50187 | 27.44500 | 8659 ft | 188 kts | 85° |
| 2026-04-20 16:09 | -29.50127 | 27.45996 | 8611 ft | 185 kts | 88° |
| 2026-04-20 16:09 | -29.50163 | 27.47457 | 8270 ft | 180 kts | 93° |
| 2026-04-20 16:10 | -29.50253 | 27.48848 | 7914 ft | 172 kts | 94° |
| 2026-04-20 16:10 | -29.50323 | 27.50247 | 7301 ft | 175 kts | 90° |
| 2026-04-20 16:10 | -29.50333 | 27.51571 | 6995 ft | 158 kts | 88° |
| 2026-04-20 16:10 | -29.50199 | 27.52726 | 6860 ft | 140 kts | 69° |
| 2026-04-20 16:11 | -29.49725 | 27.53690 | 6540 ft | 139 kts | 44° |
| 2026-04-20 16:11 | -29.48934 | 27.54329 | 6080 ft | 143 kts | 24° |
| 2026-04-20 16:11 | -29.48024 | 27.54721 | 5756 ft | 137 kts | 13° |
| 2026-04-20 16:11 | -29.47148 | 27.54965 | 5604 ft | 124 kts | 11° |
| 2026-04-20 16:12 | -29.46357 | 27.55199 | 5529 ft | 112 kts | 12° |
| 2026-04-20 16:12 | -29.45643 | 27.55397 | 5514 ft | 104 kts | 9° |
| 2026-04-20 16:12 | -29.44941 | 27.55576 | 5612 ft | 101 kts | 9° |
| 2026-04-20 16:12 | -29.44233 | 27.55786 | 5715 ft | 111 kts | 6° |
| 2026-04-20 16:13 | -29.43482 | 27.55597 | 5729 ft | 111 kts | 328° |
| 2026-04-20 16:13 | -29.42898 | 27.55158 | 5883 ft | 97 kts | 326° |
| 2026-04-20 16:13 | -29.42284 | 27.55096 | 5937 ft | 94 kts | 19° |
| 2026-04-20 16:13 | -29.41836 | 27.55663 | 5881 ft | 101 kts | 72° |
| 2026-04-20 16:14 | -29.42038 | 27.56343 | 5823 ft | 95 kts | 139° |
| 2026-04-20 16:14 | -29.42619 | 27.56534 | 5677 ft | 82 kts | 199° |
| 2026-04-20 16:14 | -29.43115 | 27.56271 | 5574 ft | 80 kts | 204° |
| 2026-04-20 16:14 | -29.43654 | 27.56070 | 5456 ft | 81 kts | 199° |
| 2026-04-20 16:15 | -29.44162 | 27.55899 | 5350 ft | 74 kts | 199° |
| 2026-04-20 16:15 | -29.44626 | 27.55752 | 5316 ft | 64 kts | 196° |
| 2026-04-20 16:15 | -29.44973 | 27.55640 | 5321 ft | 39 kts | 195° |
| 2026-04-20 16:15 | -29.45191 | 27.55568 | 5320 ft | 30 kts | 192° |
| 2026-04-20 16:16 | -29.45417 | 27.55506 | 5328 ft | 32 kts | 193° |
| 2026-04-20 16:16 | -29.45553 | 27.55480 | 5330 ft | 24 kts | 190° |
| 2026-04-20 16:16 | -29.45759 | 27.55407 | 5333 ft | 39 kts | 198° |
| 2026-04-20 16:16 | -29.45982 | 27.55325 | 5339 ft | 12 kts | 197° |
| 2026-04-20 16:17 | -29.46030 | 27.55308 | 5337 ft | 5 kts | 196° |